sensor_id;sensor_type;location;lat;lon;timestamp;temperature;humidity
1578;DHT22;57623;53.608;10.004;2023-04-24T00:00:57;12.80;99.90
1578;DHT22;57623;53.608;10.004;2023-04-24T00:03:27;12.70;99.90
1578;DHT22;57623;53.608;10.004;2023-04-24T00:05:58;12.70;99.90
1578;DHT22;57623;53.608;10.004;2023-04-24T00:08:27;12.70;99.90
1578;DHT22;57623;53.608;10.004;2023-04-24T00:10:55;12.70;99.90
1578;DHT22;57623;53.608;10.004;2023-04-24T00:13:23;12.70;99.90
1578;DHT22;57623;53.608;10.004;2023-04-24T00:15:51;12.70;99.90
1578;DHT22;57623;53.608;10.004;2023-04-24T00:18:19;12.70;99.90
1578;DHT22;57623;53.608;10.004;2023-04-24T00:20:47;12.70;99.90
1578;DHT22;57623;53.608;10.004;2023-04-24T00:23:16;12.70;99.90
1578;DHT22;57623;53.608;10.004;2023-04-24T00:25:44;12.70;99.90
1578;DHT22;57623;53.608;10.004;2023-04-24T00:28:12;12.70;99.90
1578;DHT22;57623;53.608;10.004;2023-04-24T00:30:40;12.70;99.90
1578;DHT22;57623;53.608;10.004;2023-04-24T00:33:08;12.70;99.90
1578;DHT22;57623;53.608;10.004;2023-04-24T00:35:37;12.60;99.90
1578;DHT22;57623;53.608;10.004;2023-04-24T00:38:05;12.60;99.90
1578;DHT22;57623;53.608;10.004;2023-04-24T00:40:35;12.60;99.90
1578;DHT22;57623;53.608;10.004;2023-04-24T00:43:03;12.60;99.90
1578;DHT22;57623;53.608;10.004;2023-04-24T00:45:31;12.50;99.90
1578;DHT22;57623;53.608;10.004;2023-04-24T00:48:00;12.60;99.90
1578;DHT22;57623;53.608;10.004;2023-04-24T00:50:28;12.50;99.90
1578;DHT22;57623;53.608;10.004;2023-04-24T00:52:57;12.60;99.90
1578;DHT22;57623;53.608;10.004;2023-04-24T00:55:25;12.60;99.90
1578;DHT22;57623;53.608;10.004;2023-04-24T00:57:55;12.50;99.90
1578;DHT22;57623;53.608;10.004;2023-04-24T01:00:23;12.50;99.90
1578;DHT22;57623;53.608;10.004;2023-04-24T01:02:52;12.50;99.90
1578;DHT22;57623;53.608;10.004;2023-04-24T01:05:20;12.50;99.90
1578;DHT22;57623;53.608;10.004;2023-04-24T01:07:48;12.50;99.90
1578;DHT22;57623;53.608;10.004;2023-04-24T01:10:16;12.50;99.90
1578;DHT22;57623;53.608;10.004;2023-04-24T01:12:46;12.50;99.90
1578;DHT22;57623;53.608;10.004;2023-04-24T01:15:16;12.50;99.90
1578;DHT22;57623;53.608;10.004;2023-04-24T01:17:44;12.50;99.90
1578;DHT22;57623;53.608;10.004;2023-04-24T01:20:12;12.40;99.90
1578;DHT22;57623;53.608;10.004;2023-04-24T01:22:43;12.40;99.90
1578;DHT22;57623;53.608;10.004;2023-04-24T01:25:11;12.40;99.90
1578;DHT22;57623;53.608;10.004;2023-04-24T01:27:39;12.40;99.90
1578;DHT22;57623;53.608;10.004;2023-04-24T01:30:08;12.40;99.90
1578;DHT22;57623;53.608;10.004;2023-04-24T01:32:37;12.40;99.90
1578;DHT22;57623;53.608;10.004;2023-04-24T01:35:06;12.40;99.90
1578;DHT22;57623;53.608;10.004;2023-04-24T01:37:35;12.30;99.90
1578;DHT22;57623;53.608;10.004;2023-04-24T01:40:06;12.30;99.90
1578;DHT22;57623;53.608;10.004;2023-04-24T01:42:35;12.30;99.90
1578;DHT22;57623;53.608;10.004;2023-04-24T01:45:04;12.30;99.90
1578;DHT22;57623;53.608;10.004;2023-04-24T01:47:32;12.30;99.90
1578;DHT22;57623;53.608;10.004;2023-04-24T01:50:00;12.30;99.90
1578;DHT22;57623;53.608;10.004;2023-04-24T01:52:28;12.40;99.90
1578;DHT22;57623;53.608;10.004;2023-04-24T01:55:00;12.30;99.90
1578;DHT22;57623;53.608;10.004;2023-04-24T01:57:29;12.30;99.90
1578;DHT22;57623;53.608;10.004;2023-04-24T01:59:57;12.30;99.90
1578;DHT22;57623;53.608;10.004;2023-04-24T02:02:25;12.30;99.90
1578;DHT22;57623;53.608;10.004;2023-04-24T02:04:55;12.20;99.90
1578;DHT22;57623;53.608;10.004;2023-04-24T02:07:23;12.20;99.90
1578;DHT22;57623;53.608;10.004;2023-04-24T02:09:51;12.20;99.90
1578;DHT22;57623;53.608;10.004;2023-04-24T02:12:19;12.20;99.90
1578;DHT22;57623;53.608;10.004;2023-04-24T02:14:48;12.20;99.90
1578;DHT22;57623;53.608;10.004;2023-04-24T02:17:16;12.20;99.90
1578;DHT22;57623;53.608;10.004;2023-04-24T02:19:45;12.20;99.90
1578;DHT22;57623;53.608;10.004;2023-04-24T02:22:13;12.20;99.90
1578;DHT22;57623;53.608;10.004;2023-04-24T02:24:41;12.10;99.90
1578;DHT22;57623;53.608;10.004;2023-04-24T02:27:09;12.10;99.90
1578;DHT22;57623;53.608;10.004;2023-04-24T02:29:38;12.10;99.90
1578;DHT22;57623;53.608;10.004;2023-04-24T02:32:07;12.10;99.90
1578;DHT22;57623;53.608;10.004;2023-04-24T02:34:38;12.10;99.90
1578;DHT22;57623;53.608;10.004;2023-04-24T02:37:06;12.10;99.90
1578;DHT22;57623;53.608;10.004;2023-04-24T02:39:33;12.10;99.90
1578;DHT22;57623;53.608;10.004;2023-04-24T02:42:01;12.00;99.90
1578;DHT22;57623;53.608;10.004;2023-04-24T02:44:29;12.10;99.90
1578;DHT22;57623;53.608;10.004;2023-04-24T02:46:57;12.00;99.90
1578;DHT22;57623;53.608;10.004;2023-04-24T02:49:27;12.00;99.90
1578;DHT22;57623;53.608;10.004;2023-04-24T02:51:54;12.00;99.90
1578;DHT22;57623;53.608;10.004;2023-04-24T02:54:22;12.00;99.90
1578;DHT22;57623;53.608;10.004;2023-04-24T02:56:50;12.00;99.90
1578;DHT22;57623;53.608;10.004;2023-04-24T02:59:21;11.90;99.90
1578;DHT22;57623;53.608;10.004;2023-04-24T03:01:49;11.90;99.90
1578;DHT22;57623;53.608;10.004;2023-04-24T03:04:20;11.90;99.90
1578;DHT22;57623;53.608;10.004;2023-04-24T03:06:50;11.90;99.90
1578;DHT22;57623;53.608;10.004;2023-04-24T03:09:19;11.80;99.90
1578;DHT22;57623;53.608;10.004;2023-04-24T03:11:47;11.80;99.90
1578;DHT22;57623;53.608;10.004;2023-04-24T03:14:16;11.80;99.90
1578;DHT22;57623;53.608;10.004;2023-04-24T03:16:44;11.80;99.90
1578;DHT22;57623;53.608;10.004;2023-04-24T03:19:12;11.80;99.90
1578;DHT22;57623;53.608;10.004;2023-04-24T03:21:40;11.80;99.90
1578;DHT22;57623;53.608;10.004;2023-04-24T03:24:09;11.70;99.90
1578;DHT22;57623;53.608;10.004;2023-04-24T03:26:37;11.70;99.90
1578;DHT22;57623;53.608;10.004;2023-04-24T03:29:05;11.70;99.90
1578;DHT22;57623;53.608;10.004;2023-04-24T03:31:33;11.60;99.90
1578;DHT22;57623;53.608;10.004;2023-04-24T03:34:01;11.60;99.90
1578;DHT22;57623;53.608;10.004;2023-04-24T03:36:29;11.60;99.90
1578;DHT22;57623;53.608;10.004;2023-04-24T03:38:58;11.60;99.90
1578;DHT22;57623;53.608;10.004;2023-04-24T03:41:27;11.60;99.90
1578;DHT22;57623;53.608;10.004;2023-04-24T03:43:55;11.60;99.90
1578;DHT22;57623;53.608;10.004;2023-04-24T03:46:23;11.50;99.90
1578;DHT22;57623;53.608;10.004;2023-04-24T03:48:51;11.50;99.90
1578;DHT22;57623;53.608;10.004;2023-04-24T03:51:19;11.50;99.90
1578;DHT22;57623;53.608;10.004;2023-04-24T03:53:48;11.50;99.90
1578;DHT22;57623;53.608;10.004;2023-04-24T03:56:16;11.40;99.90
1578;DHT22;57623;53.608;10.004;2023-04-24T03:58:45;11.40;99.90
1578;DHT22;57623;53.608;10.004;2023-04-24T04:01:13;11.30;99.90
1578;DHT22;57623;53.608;10.004;2023-04-24T04:03:42;11.30;99.90
1578;DHT22;57623;53.608;10.004;2023-04-24T04:06:11;11.30;99.90
1578;DHT22;57623;53.608;10.004;2023-04-24T04:08:39;11.30;99.90
1578;DHT22;57623;53.608;10.004;2023-04-24T04:11:07;11.30;99.90
1578;DHT22;57623;53.608;10.004;2023-04-24T04:13:38;11.30;99.90
1578;DHT22;57623;53.608;10.004;2023-04-24T04:16:08;11.20;99.90
1578;DHT22;57623;53.608;10.004;2023-04-24T04:18:36;11.20;99.90
1578;DHT22;57623;53.608;10.004;2023-04-24T04:21:04;11.20;99.90
1578;DHT22;57623;53.608;10.004;2023-04-24T04:23:32;11.20;99.90
1578;DHT22;57623;53.608;10.004;2023-04-24T04:26:00;11.20;99.90
1578;DHT22;57623;53.608;10.004;2023-04-24T04:28:28;11.20;99.90
1578;DHT22;57623;53.608;10.004;2023-04-24T04:30:57;11.20;99.90
1578;DHT22;57623;53.608;10.004;2023-04-24T04:33:26;11.20;99.90
1578;DHT22;57623;53.608;10.004;2023-04-24T04:35:54;11.20;99.90
1578;DHT22;57623;53.608;10.004;2023-04-24T04:38:24;11.10;99.90
1578;DHT22;57623;53.608;10.004;2023-04-24T04:40:53;11.20;99.90
1578;DHT22;57623;53.608;10.004;2023-04-24T04:43:23;11.20;99.90
1578;DHT22;57623;53.608;10.004;2023-04-24T04:45:51;11.20;99.90
1578;DHT22;57623;53.608;10.004;2023-04-24T04:48:21;11.20;99.90
1578;DHT22;57623;53.608;10.004;2023-04-24T04:50:50;11.20;99.90
1578;DHT22;57623;53.608;10.004;2023-04-24T04:53:18;11.20;99.90
1578;DHT22;57623;53.608;10.004;2023-04-24T04:55:47;11.20;99.90
1578;DHT22;57623;53.608;10.004;2023-04-24T04:58:14;11.30;99.90
1578;DHT22;57623;53.608;10.004;2023-04-24T05:00:42;11.40;99.90
1578;DHT22;57623;53.608;10.004;2023-04-24T05:03:10;11.40;99.90
1578;DHT22;57623;53.608;10.004;2023-04-24T05:05:47;11.40;99.90
1578;DHT22;57623;53.608;10.004;2023-04-24T05:08:17;11.50;99.90
1578;DHT22;57623;53.608;10.004;2023-04-24T05:10:53;11.40;99.90
1578;DHT22;57623;53.608;10.004;2023-04-24T05:13:21;11.50;99.90
1578;DHT22;57623;53.608;10.004;2023-04-24T05:16:04;11.50;99.90
1578;DHT22;57623;53.608;10.004;2023-04-24T05:18:32;11.40;99.90
1578;DHT22;57623;53.608;10.004;2023-04-24T05:21:00;11.40;99.90
1578;DHT22;57623;53.608;10.004;2023-04-24T05:23:29;11.40;99.90
1578;DHT22;57623;53.608;10.004;2023-04-24T05:25:57;11.40;99.90
1578;DHT22;57623;53.608;10.004;2023-04-24T05:28:25;11.40;99.90
1578;DHT22;57623;53.608;10.004;2023-04-24T05:30:55;11.50;99.90
1578;DHT22;57623;53.608;10.004;2023-04-24T05:33:23;11.50;99.90
1578;DHT22;57623;53.608;10.004;2023-04-24T05:35:51;11.60;99.90
1578;DHT22;57623;53.608;10.004;2023-04-24T05:38:19;11.60;99.90
1578;DHT22;57623;53.608;10.004;2023-04-24T05:40:49;11.60;99.90
1578;DHT22;57623;53.608;10.004;2023-04-24T05:43:17;11.70;99.90
1578;DHT22;57623;53.608;10.004;2023-04-24T05:45:45;11.70;99.90
1578;DHT22;57623;53.608;10.004;2023-04-24T05:48:12;11.70;99.90
1578;DHT22;57623;53.608;10.004;2023-04-24T05:50:40;11.70;99.90
1578;DHT22;57623;53.608;10.004;2023-04-24T05:53:08;11.70;99.90
1578;DHT22;57623;53.608;10.004;2023-04-24T05:55:37;11.70;99.90
1578;DHT22;57623;53.608;10.004;2023-04-24T05:58:06;11.70;99.90
1578;DHT22;57623;53.608;10.004;2023-04-24T06:00:34;11.70;99.90
1578;DHT22;57623;53.608;10.004;2023-04-24T06:03:02;11.70;99.90
1578;DHT22;57623;53.608;10.004;2023-04-24T06:05:33;11.70;99.90
1578;DHT22;57623;53.608;10.004;2023-04-24T06:08:01;11.70;99.90
1578;DHT22;57623;53.608;10.004;2023-04-24T06:10:29;11.80;99.90
1578;DHT22;57623;53.608;10.004;2023-04-24T06:12:57;11.80;99.90
1578;DHT22;57623;53.608;10.004;2023-04-24T06:15:30;11.80;99.90
1578;DHT22;57623;53.608;10.004;2023-04-24T06:17:58;11.90;99.90
1578;DHT22;57623;53.608;10.004;2023-04-24T06:20:26;11.90;99.90
1578;DHT22;57623;53.608;10.004;2023-04-24T06:22:54;12.00;99.90
1578;DHT22;57623;53.608;10.004;2023-04-24T06:27:51;12.00;99.90
1578;DHT22;57623;53.608;10.004;2023-04-24T06:30:19;12.00;99.90
1578;DHT22;57623;53.608;10.004;2023-04-24T06:32:48;12.00;99.90
1578;DHT22;57623;53.608;10.004;2023-04-24T06:35:16;12.00;99.90
1578;DHT22;57623;53.608;10.004;2023-04-24T06:37:44;12.10;99.90
1578;DHT22;57623;53.608;10.004;2023-04-24T06:40:12;12.10;99.90
1578;DHT22;57623;53.608;10.004;2023-04-24T06:42:40;12.20;99.90
1578;DHT22;57623;53.608;10.004;2023-04-24T06:45:09;12.20;99.90
1578;DHT22;57623;53.608;10.004;2023-04-24T06:47:38;12.20;99.90
1578;DHT22;57623;53.608;10.004;2023-04-24T06:50:08;12.30;99.90
1578;DHT22;57623;53.608;10.004;2023-04-24T06:52:36;12.30;99.90
1578;DHT22;57623;53.608;10.004;2023-04-24T06:55:05;12.30;99.90
1578;DHT22;57623;53.608;10.004;2023-04-24T06:57:33;12.40;99.90
1578;DHT22;57623;53.608;10.004;2023-04-24T07:00:01;12.50;99.90
1578;DHT22;57623;53.608;10.004;2023-04-24T07:02:29;12.50;99.90
1578;DHT22;57623;53.608;10.004;2023-04-24T07:04:58;12.50;99.90
1578;DHT22;57623;53.608;10.004;2023-04-24T07:07:27;12.60;99.90
1578;DHT22;57623;53.608;10.004;2023-04-24T07:09:56;12.60;99.90
1578;DHT22;57623;53.608;10.004;2023-04-24T07:12:25;12.70;99.90
1578;DHT22;57623;53.608;10.004;2023-04-24T07:14:52;12.70;99.90
1578;DHT22;57623;53.608;10.004;2023-04-24T07:17:20;12.70;99.90
1578;DHT22;57623;53.608;10.004;2023-04-24T07:19:48;12.70;99.90
1578;DHT22;57623;53.608;10.004;2023-04-24T07:22:17;12.80;99.90
1578;DHT22;57623;53.608;10.004;2023-04-24T07:24:46;12.80;99.90
1578;DHT22;57623;53.608;10.004;2023-04-24T07:27:14;12.80;99.90
1578;DHT22;57623;53.608;10.004;2023-04-24T07:29:42;12.80;99.90
1578;DHT22;57623;53.608;10.004;2023-04-24T07:32:12;12.90;99.90
1578;DHT22;57623;53.608;10.004;2023-04-24T07:34:40;12.90;99.90
1578;DHT22;57623;53.608;10.004;2023-04-24T07:37:07;13.00;99.90
1578;DHT22;57623;53.608;10.004;2023-04-24T07:39:35;13.00;99.90
1578;DHT22;57623;53.608;10.004;2023-04-24T07:42:05;13.00;99.90
1578;DHT22;57623;53.608;10.004;2023-04-24T07:44:33;13.00;99.90
1578;DHT22;57623;53.608;10.004;2023-04-24T07:47:01;13.10;99.90
1578;DHT22;57623;53.608;10.004;2023-04-24T07:49:29;13.10;99.90
1578;DHT22;57623;53.608;10.004;2023-04-24T07:51:57;13.00;99.90
1578;DHT22;57623;53.608;10.004;2023-04-24T07:54:27;13.10;99.90
1578;DHT22;57623;53.608;10.004;2023-04-24T07:56:55;13.10;99.90
1578;DHT22;57623;53.608;10.004;2023-04-24T07:59:24;13.20;99.90
1578;DHT22;57623;53.608;10.004;2023-04-24T08:01:52;13.30;99.90
1578;DHT22;57623;53.608;10.004;2023-04-24T08:04:20;13.30;99.90
1578;DHT22;57623;53.608;10.004;2023-04-24T08:06:49;13.30;99.90
1578;DHT22;57623;53.608;10.004;2023-04-24T08:09:17;13.30;99.90
1578;DHT22;57623;53.608;10.004;2023-04-24T08:11:45;13.30;99.90
1578;DHT22;57623;53.608;10.004;2023-04-24T08:14:13;13.30;99.90
1578;DHT22;57623;53.608;10.004;2023-04-24T08:16:42;13.20;99.90
1578;DHT22;57623;53.608;10.004;2023-04-24T08:19:11;13.20;99.90
1578;DHT22;57623;53.608;10.004;2023-04-24T08:21:38;13.20;99.90
1578;DHT22;57623;53.608;10.004;2023-04-24T08:24:06;13.20;99.90
1578;DHT22;57623;53.608;10.004;2023-04-24T08:26:35;13.20;99.90
1578;DHT22;57623;53.608;10.004;2023-04-24T08:29:03;13.10;99.90
1578;DHT22;57623;53.608;10.004;2023-04-24T08:31:31;13.10;99.90
1578;DHT22;57623;53.608;10.004;2023-04-24T08:34:00;13.10;99.90
1578;DHT22;57623;53.608;10.004;2023-04-24T08:36:28;13.10;99.90
1578;DHT22;57623;53.608;10.004;2023-04-24T08:39:12;13.10;99.90
1578;DHT22;57623;53.608;10.004;2023-04-24T08:41:41;13.10;99.90
1578;DHT22;57623;53.608;10.004;2023-04-24T08:44:09;13.00;99.90
1578;DHT22;57623;53.608;10.004;2023-04-24T08:46:39;13.00;99.90
1578;DHT22;57623;53.608;10.004;2023-04-24T08:49:09;12.90;99.90
1578;DHT22;57623;53.608;10.004;2023-04-24T08:51:37;12.90;99.90
1578;DHT22;57623;53.608;10.004;2023-04-24T08:54:06;12.90;99.90
1578;DHT22;57623;53.608;10.004;2023-04-24T08:56:37;12.90;99.90
1578;DHT22;57623;53.608;10.004;2023-04-24T08:59:06;12.90;99.90
1578;DHT22;57623;53.608;10.004;2023-04-24T09:01:34;13.00;99.90
1578;DHT22;57623;53.608;10.004;2023-04-24T09:04:08;13.00;99.90
1578;DHT22;57623;53.608;10.004;2023-04-24T09:06:39;13.00;99.90
1578;DHT22;57623;53.608;10.004;2023-04-24T09:09:07;13.00;99.90
1578;DHT22;57623;53.608;10.004;2023-04-24T09:11:36;13.00;99.90
1578;DHT22;57623;53.608;10.004;2023-04-24T09:14:05;13.10;99.90
1578;DHT22;57623;53.608;10.004;2023-04-24T09:16:34;13.20;99.90
1578;DHT22;57623;53.608;10.004;2023-04-24T09:19:03;13.30;99.90
1578;DHT22;57623;53.608;10.004;2023-04-24T09:21:33;13.40;99.90
1578;DHT22;57623;53.608;10.004;2023-04-24T09:24:03;13.40;99.90
1578;DHT22;57623;53.608;10.004;2023-04-24T09:26:32;13.40;99.90
1578;DHT22;57623;53.608;10.004;2023-04-24T09:29:00;13.30;99.90
1578;DHT22;57623;53.608;10.004;2023-04-24T09:31:29;13.30;99.90
1578;DHT22;57623;53.608;10.004;2023-04-24T09:33:59;13.30;99.90
1578;DHT22;57623;53.608;10.004;2023-04-24T09:36:30;13.20;99.90
1578;DHT22;57623;53.608;10.004;2023-04-24T09:39:02;13.20;99.90
1578;DHT22;57623;53.608;10.004;2023-04-24T09:41:32;13.20;99.90
1578;DHT22;57623;53.608;10.004;2023-04-24T09:44:11;13.20;99.90
1578;DHT22;57623;53.608;10.004;2023-04-24T09:46:41;13.20;99.90
1578;DHT22;57623;53.608;10.004;2023-04-24T09:49:12;13.20;99.90
1578;DHT22;57623;53.608;10.004;2023-04-24T09:51:42;13.20;99.90
1578;DHT22;57623;53.608;10.004;2023-04-24T09:54:15;13.20;99.90
1578;DHT22;57623;53.608;10.004;2023-04-24T09:56:44;13.10;99.90
1578;DHT22;57623;53.608;10.004;2023-04-24T09:59:12;13.20;99.90
1578;DHT22;57623;53.608;10.004;2023-04-24T10:01:41;13.20;99.90
1578;DHT22;57623;53.608;10.004;2023-04-24T10:04:18;13.10;99.90
1578;DHT22;57623;53.608;10.004;2023-04-24T10:06:47;13.10;99.90
1578;DHT22;57623;53.608;10.004;2023-04-24T10:09:18;13.00;99.90
1578;DHT22;57623;53.608;10.004;2023-04-24T10:11:49;13.00;99.90
1578;DHT22;57623;53.608;10.004;2023-04-24T10:14:18;13.00;99.90
1578;DHT22;57623;53.608;10.004;2023-04-24T10:16:47;12.90;99.90
1578;DHT22;57623;53.608;10.004;2023-04-24T10:19:17;12.90;99.90
1578;DHT22;57623;53.608;10.004;2023-04-24T10:21:46;12.90;99.90
1578;DHT22;57623;53.608;10.004;2023-04-24T10:24:17;12.90;99.90
1578;DHT22;57623;53.608;10.004;2023-04-24T10:26:47;12.90;99.90
1578;DHT22;57623;53.608;10.004;2023-04-24T10:29:18;12.90;99.90
1578;DHT22;57623;53.608;10.004;2023-04-24T10:31:48;13.00;99.90
1578;DHT22;57623;53.608;10.004;2023-04-24T10:34:17;13.00;99.90
1578;DHT22;57623;53.608;10.004;2023-04-24T10:36:50;13.00;99.90
1578;DHT22;57623;53.608;10.004;2023-04-24T10:39:22;13.00;99.90
1578;DHT22;57623;53.608;10.004;2023-04-24T10:41:53;13.00;99.90
1578;DHT22;57623;53.608;10.004;2023-04-24T10:44:24;13.10;99.90
1578;DHT22;57623;53.608;10.004;2023-04-24T10:46:54;13.10;99.90
1578;DHT22;57623;53.608;10.004;2023-04-24T10:49:28;13.10;99.90
1578;DHT22;57623;53.608;10.004;2023-04-24T10:52:00;13.10;99.90
1578;DHT22;57623;53.608;10.004;2023-04-24T10:54:34;13.10;99.90
1578;DHT22;57623;53.608;10.004;2023-04-24T10:57:36;13.10;99.90
1578;DHT22;57623;53.608;10.004;2023-04-24T11:00:14;13.10;99.90
1578;DHT22;57623;53.608;10.004;2023-04-24T11:02:42;13.10;99.90
1578;DHT22;57623;53.608;10.004;2023-04-24T11:05:16;13.10;99.90
1578;DHT22;57623;53.608;10.004;2023-04-24T11:08:09;13.10;99.90
1578;DHT22;57623;53.608;10.004;2023-04-24T11:10:43;13.20;99.90
1578;DHT22;57623;53.608;10.004;2023-04-24T11:13:14;13.20;99.90
1578;DHT22;57623;53.608;10.004;2023-04-24T11:15:43;13.30;99.90
1578;DHT22;57623;53.608;10.004;2023-04-24T11:18:13;13.30;99.90
1578;DHT22;57623;53.608;10.004;2023-04-24T11:20:43;13.40;99.90
1578;DHT22;57623;53.608;10.004;2023-04-24T11:23:12;13.40;99.90
1578;DHT22;57623;53.608;10.004;2023-04-24T11:25:42;13.40;99.90
1578;DHT22;57623;53.608;10.004;2023-04-24T11:28:14;13.50;99.90
1578;DHT22;57623;53.608;10.004;2023-04-24T11:30:43;13.60;99.90
1578;DHT22;57623;53.608;10.004;2023-04-24T11:33:12;13.50;99.90
1578;DHT22;57623;53.608;10.004;2023-04-24T11:35:47;13.60;99.90
1578;DHT22;57623;53.608;10.004;2023-04-24T11:38:17;13.60;99.90
1578;DHT22;57623;53.608;10.004;2023-04-24T11:40:52;13.80;99.90
1578;DHT22;57623;53.608;10.004;2023-04-24T11:43:21;13.80;99.90
1578;DHT22;57623;53.608;10.004;2023-04-24T11:45:49;14.00;99.90
1578;DHT22;57623;53.608;10.004;2023-04-24T11:48:19;14.10;99.90
1578;DHT22;57623;53.608;10.004;2023-04-24T11:50:50;14.00;99.90
1578;DHT22;57623;53.608;10.004;2023-04-24T11:53:19;14.00;99.90
1578;DHT22;57623;53.608;10.004;2023-04-24T11:55:48;14.00;99.90
1578;DHT22;57623;53.608;10.004;2023-04-24T11:58:20;14.00;99.90
1578;DHT22;57623;53.608;10.004;2023-04-24T12:00:56;13.90;99.90
1578;DHT22;57623;53.608;10.004;2023-04-24T12:03:24;13.90;99.90
1578;DHT22;57623;53.608;10.004;2023-04-24T12:05:53;13.90;99.90
1578;DHT22;57623;53.608;10.004;2023-04-24T12:08:31;13.90;99.90
1578;DHT22;57623;53.608;10.004;2023-04-24T12:11:02;13.90;99.90
1578;DHT22;57623;53.608;10.004;2023-04-24T12:13:32;14.00;99.90
1578;DHT22;57623;53.608;10.004;2023-04-24T12:16:02;14.10;99.90
1578;DHT22;57623;53.608;10.004;2023-04-24T12:18:30;14.10;99.90
1578;DHT22;57623;53.608;10.004;2023-04-24T12:21:25;14.20;99.90
1578;DHT22;57623;53.608;10.004;2023-04-24T12:23:56;14.30;99.90
1578;DHT22;57623;53.608;10.004;2023-04-24T12:26:24;14.20;99.90
1578;DHT22;57623;53.608;10.004;2023-04-24T12:28:54;14.00;99.90
1578;DHT22;57623;53.608;10.004;2023-04-24T12:31:22;14.00;99.90
1578;DHT22;57623;53.608;10.004;2023-04-24T12:33:50;14.00;99.90
1578;DHT22;57623;53.608;10.004;2023-04-24T12:36:21;13.90;99.90
1578;DHT22;57623;53.608;10.004;2023-04-24T12:38:53;13.90;99.90
1578;DHT22;57623;53.608;10.004;2023-04-24T12:41:21;13.80;99.90
1578;DHT22;57623;53.608;10.004;2023-04-24T12:43:53;13.80;99.90
1578;DHT22;57623;53.608;10.004;2023-04-24T12:46:22;13.70;99.90
1578;DHT22;57623;53.608;10.004;2023-04-24T12:48:50;13.60;99.90
1578;DHT22;57623;53.608;10.004;2023-04-24T12:51:18;13.60;99.90
1578;DHT22;57623;53.608;10.004;2023-04-24T12:53:46;13.50;99.90
1578;DHT22;57623;53.608;10.004;2023-04-24T12:56:14;13.40;99.90
1578;DHT22;57623;53.608;10.004;2023-04-24T12:58:42;13.40;99.90
1578;DHT22;57623;53.608;10.004;2023-04-24T13:01:11;13.30;99.90
1578;DHT22;57623;53.608;10.004;2023-04-24T13:03:39;13.30;99.90
1578;DHT22;57623;53.608;10.004;2023-04-24T13:06:08;13.20;99.90
1578;DHT22;57623;53.608;10.004;2023-04-24T13:08:36;13.20;99.90
1578;DHT22;57623;53.608;10.004;2023-04-24T13:11:04;13.10;99.90
1578;DHT22;57623;53.608;10.004;2023-04-24T13:13:32;13.10;99.90
1578;DHT22;57623;53.608;10.004;2023-04-24T13:16:00;13.00;99.90
1578;DHT22;57623;53.608;10.004;2023-04-24T13:18:29;13.00;99.90
1578;DHT22;57623;53.608;10.004;2023-04-24T13:20:57;13.00;99.90
1578;DHT22;57623;53.608;10.004;2023-04-24T13:23:25;13.00;99.90
1578;DHT22;57623;53.608;10.004;2023-04-24T13:25:54;13.00;99.90
1578;DHT22;57623;53.608;10.004;2023-04-24T13:28:24;13.00;99.90
1578;DHT22;57623;53.608;10.004;2023-04-24T13:30:52;12.90;99.90
1578;DHT22;57623;53.608;10.004;2023-04-24T13:33:20;12.90;99.90
1578;DHT22;57623;53.608;10.004;2023-04-24T13:35:49;12.90;99.90
1578;DHT22;57623;53.608;10.004;2023-04-24T13:38:17;12.90;99.90
1578;DHT22;57623;53.608;10.004;2023-04-24T13:40:48;12.90;99.90
1578;DHT22;57623;53.608;10.004;2023-04-24T13:43:16;12.90;99.90
1578;DHT22;57623;53.608;10.004;2023-04-24T13:45:44;12.90;99.90
1578;DHT22;57623;53.608;10.004;2023-04-24T13:48:12;12.90;99.90
1578;DHT22;57623;53.608;10.004;2023-04-24T13:50:42;12.90;99.90
1578;DHT22;57623;53.608;10.004;2023-04-24T13:53:12;12.90;99.90
1578;DHT22;57623;53.608;10.004;2023-04-24T13:55:40;12.80;99.90
1578;DHT22;57623;53.608;10.004;2023-04-24T13:58:07;12.80;99.90
1578;DHT22;57623;53.608;10.004;2023-04-24T14:00:35;12.80;99.90
1578;DHT22;57623;53.608;10.004;2023-04-24T14:03:03;12.80;99.90
1578;DHT22;57623;53.608;10.004;2023-04-24T14:05:32;12.80;99.90
1578;DHT22;57623;53.608;10.004;2023-04-24T14:08:01;12.80;99.90
1578;DHT22;57623;53.608;10.004;2023-04-24T14:10:31;12.80;99.90
1578;DHT22;57623;53.608;10.004;2023-04-24T14:12:59;12.70;99.90
1578;DHT22;57623;53.608;10.004;2023-04-24T14:15:27;12.80;99.90
1578;DHT22;57623;53.608;10.004;2023-04-24T14:17:55;12.70;99.90
1578;DHT22;57623;53.608;10.004;2023-04-24T14:20:23;12.70;99.90
1578;DHT22;57623;53.608;10.004;2023-04-24T14:22:51;12.70;99.90
1578;DHT22;57623;53.608;10.004;2023-04-24T14:25:20;12.70;99.90
1578;DHT22;57623;53.608;10.004;2023-04-24T14:27:50;12.70;99.90
1578;DHT22;57623;53.608;10.004;2023-04-24T14:30:19;12.60;99.90
1578;DHT22;57623;53.608;10.004;2023-04-24T14:32:48;12.60;99.90
1578;DHT22;57623;53.608;10.004;2023-04-24T14:35:16;12.50;99.90
1578;DHT22;57623;53.608;10.004;2023-04-24T14:37:44;12.50;99.90
1578;DHT22;57623;53.608;10.004;2023-04-24T14:40:12;12.40;99.90
1578;DHT22;57623;53.608;10.004;2023-04-24T14:43:01;12.40;99.90
1578;DHT22;57623;53.608;10.004;2023-04-24T14:45:29;12.30;99.90
1578;DHT22;57623;53.608;10.004;2023-04-24T14:47:57;12.30;99.90
1578;DHT22;57623;53.608;10.004;2023-04-24T14:50:25;12.20;99.90
1578;DHT22;57623;53.608;10.004;2023-04-24T14:52:55;12.10;99.90
1578;DHT22;57623;53.608;10.004;2023-04-24T14:55:24;12.00;99.90
1578;DHT22;57623;53.608;10.004;2023-04-24T14:57:52;12.00;99.90
1578;DHT22;57623;53.608;10.004;2023-04-24T15:00:22;12.00;99.90
1578;DHT22;57623;53.608;10.004;2023-04-24T15:02:50;11.90;99.90
1578;DHT22;57623;53.608;10.004;2023-04-24T15:05:19;11.90;99.90
1578;DHT22;57623;53.608;10.004;2023-04-24T15:07:48;11.90;99.90
1578;DHT22;57623;53.608;10.004;2023-04-24T15:10:16;11.80;99.90
1578;DHT22;57623;53.608;10.004;2023-04-24T15:12:44;11.70;99.90
1578;DHT22;57623;53.608;10.004;2023-04-24T15:15:12;11.60;99.90
1578;DHT22;57623;53.608;10.004;2023-04-24T15:17:42;11.60;99.90
1578;DHT22;57623;53.608;10.004;2023-04-24T15:20:10;11.50;99.90
1578;DHT22;57623;53.608;10.004;2023-04-24T15:22:38;11.50;99.90
1578;DHT22;57623;53.608;10.004;2023-04-24T15:25:07;11.30;99.90
1578;DHT22;57623;53.608;10.004;2023-04-24T15:27:40;11.20;99.90
1578;DHT22;57623;53.608;10.004;2023-04-24T15:30:09;11.00;99.90
1578;DHT22;57623;53.608;10.004;2023-04-24T15:32:37;11.00;99.90
1578;DHT22;57623;53.608;10.004;2023-04-24T15:35:08;10.90;99.90
1578;DHT22;57623;53.608;10.004;2023-04-24T15:37:36;10.80;99.90
1578;DHT22;57623;53.608;10.004;2023-04-24T15:40:05;10.70;99.90
1578;DHT22;57623;53.608;10.004;2023-04-24T15:42:34;10.70;99.90
1578;DHT22;57623;53.608;10.004;2023-04-24T15:45:05;10.60;99.90